| time (UTC) | temp C | wind direction | speed KPH | gust KPH | rain 1hr cm | rain 24hr cm | rain mn cm | humidity % | barometer mb |
| 20260508111559 | 24 | 206 | 14.5 | 22.5 | 0.00 | 0.03 | 0.03 | 29 | 1015.6 |
| 20260508110544 | 24 | 186 | 12.9 | 24.1 | 0.00 | 0.03 | 0.03 | 29 | 1015.4 |
| 20260508105530 | 24 | 203 | 16.1 | 22.5 | 0.00 | 0.03 | 0.03 | 28 | 1015.5 |
| 20260508104518 | 24 | 195 | 11.3 | 17.7 | 0.00 | 0.03 | 0.03 | 30 | 1015.5 |
| 20260508103603 | 23 | 202 | 16.1 | 24.1 | 0.00 | 0.03 | 0.03 | 29 | 1015.5 |
| 20260508102549 | 23 | 218 | 12.9 | 20.9 | 0.00 | 0.03 | 0.03 | 30 | 1015.8 |
| 20260508101537 | 24 | 173 | 14.5 | 19.3 | 0.00 | 0.03 | 0.03 | 26 | 1015.8 |
| 20260508100523 | 24 | 221 | 8.0 | 17.7 | 0.00 | 0.03 | 0.03 | 24 | 1015.9 |
| 20260508095608 | 23 | 160 | 12.9 | 19.3 | 0.00 | 0.03 | 0.03 | 23 | 1016.1 |
| 20260508094556 | 23 | 236 | 12.9 | 17.7 | 0.00 | 0.03 | 0.03 | 22 | 1016.0 |
| 20260508093541 | 22 | 239 | 14.5 | 20.9 | 0.00 | 0.03 | 0.03 | 22 | 1016.0 |
| 20260508092526 | 23 | 186 | 14.5 | 22.5 | 0.00 | 0.03 | 0.03 | 24 | 1016.3 |
| 20260508091614 | 22 | 220 | 12.9 | 17.7 | 0.00 | 0.03 | 0.03 | 25 | 1016.2 |
| 20260508090555 | 23 | 199 | 14.5 | 22.5 | 0.00 | 0.03 | 0.03 | 26 | 1016.3 |
| 20260508085539 | 22 | 193 | 19.3 | 27.4 | 0.00 | 0.03 | 0.03 | 25 | 1016.3 |
| 20260508084527 | 22 | 181 | 16.1 | 24.1 | 0.00 | 0.03 | 0.03 | 26 | 1016.3 |
| 20260508083613 | 22 | 190 | 17.7 | 27.4 | 0.00 | 0.03 | 0.03 | 32 | 1016.6 |
| 20260508082559 | 22 | 189 | 14.5 | 19.3 | 0.00 | 0.03 | 0.03 | 37 | 1016.4 |
| 20260508081547 | 21 | 218 | 19.3 | 24.1 | 0.00 | 0.03 | 0.03 | 41 | 1016.5 |
| 20260508080532 | 21 | 208 | 19.3 | 25.7 | 0.00 | 0.03 | 0.03 | 42 | 1016.4 |
| 20260508075618 | 21 | 237 | 9.7 | 22.5 | 0.00 | 0.03 | 0.03 | 43 | 1016.5 |
| 20260508074607 | 21 | 200 | 14.5 | 20.9 | 0.00 | 0.03 | 0.03 | 44 | 1016.5 |
| 20260508073552 | 21 | 222 | 19.3 | 25.7 | 0.00 | 0.03 | 0.03 | 45 | 1016.4 |
| 20260508072538 | 20 | 197 | 17.7 | 24.1 | 0.00 | 0.03 | 0.03 | 45 | 1016.6 |
| 20260508071527 | 21 | 225 | 14.5 | 22.5 | 0.00 | 0.03 | 0.03 | 45 | 1016.4 |
| 20260508070612 | 20 | 188 | 16.1 | 24.1 | 0.00 | 0.03 | 0.03 | 46 | 1016.5 |
| 20260508065559 | 20 | 187 | 14.5 | 22.5 | 0.00 | 0.03 | 0.03 | 46 | 1016.4 |
| 20260508064546 | 20 | 189 | 16.1 | 27.4 | 0.00 | 0.03 | 0.03 | 47 | 1016.3 |
| 20260508063532 | 20 | 187 | 12.9 | 20.9 | 0.00 | 0.03 | 0.03 | 48 | 1016.5 |
| 20260508062618 | 19 | 192 | 19.3 | 24.1 | 0.03 | 0.03 | 0.03 | 49 | 1016.3 |
| 20260508061606 | 19 | 188 | 16.1 | 19.3 | 0.03 | 0.03 | 0.03 | 50 | 1016.4 |
| 20260508060552 | 19 | 213 | 14.5 | 19.3 | 0.03 | 0.03 | 0.03 | 51 | 1016.3 |
| 20260508055537 | 18 | 180 | 17.7 | 24.1 | 0.03 | 0.03 | 0.03 | 51 | 1016.4 |
| 20260508054525 | 18 | 195 | 14.5 | 20.9 | 0.03 | 0.03 | 0.03 | 51 | 1016.5 |
| 20260508053611 | 18 | 191 | 12.9 | 19.3 | 0.03 | 0.03 | 0.03 | 50 | 1016.4 |
| 20260508052557 | 18 | 202 | 12.9 | 19.3 | 0.00 | 0.00 | 0.00 | 51 | 1016.4 |
| 20260508051546 | 18 | 208 | 16.1 | 24.1 | 0.00 | 0.00 | 0.00 | 51 | 1016.4 |
| 20260508050531 | 18 | 210 | 12.9 | 17.7 | 0.00 | 0.00 | 0.00 | 51 | 1016.4 |
| 20260508045617 | 17 | 208 | 14.5 | 19.3 | 0.00 | 0.00 | 0.00 | 52 | 1016.5 |
| 20260508044600 | 17 | 180 | 12.9 | 17.7 | 0.00 | 0.00 | 0.00 | 53 | 1016.5 |
| 20260508043544 | 17 | 210 | 11.3 | 17.7 | 0.00 | 0.00 | 0.00 | 53 | 1016.4 |
| 20260508042530 | 17 | 191 | 11.3 | 16.1 | 0.00 | 0.00 | 0.00 | 57 | 1016.5 |
| 20260508041618 | 17 | 193 | 12.9 | 20.9 | 0.00 | 0.00 | 0.00 | 59 | 1016.3 |
| 20260508040604 | 16 | 217 | 14.5 | 19.3 | 0.00 | 0.00 | 0.00 | 59 | 1016.3 |
| 20260508035549 | 16 | 186 | 11.3 | 17.7 | 0.00 | 0.00 | 0.00 | 60 | 1016.2 |
| 20260508034537 | 16 | 193 | 11.3 | 16.1 | 0.00 | 0.00 | 0.00 | 60 | 1016.2 |
| 20260508033522 | 16 | 188 | 12.9 | 17.7 | 0.00 | 0.00 | 0.00 | 60 | 1016.2 |
| 20260508032607 | 16 | 194 | 14.5 | 17.7 | 0.00 | 0.00 | 0.00 | 60 | 1016.2 |
| 20260508031556 | 16 | 202 | 11.3 | 17.7 | 0.00 | 0.00 | 0.00 | 60 | 1016.2 |
| 20260508030541 | 16 | 195 | 11.3 | 16.1 | 0.00 | 0.00 | 0.00 | 59 | 1016.2 |
| 20260508025526 | 16 | 186 | 12.9 | 17.7 | 0.00 | 0.00 | 0.00 | 58 | 1016.2 |
| 20260508024615 | 15 | 184 | 12.9 | 17.7 | 0.00 | 0.00 | 0.00 | 57 | 1016.1 |
| 20260508023600 | 15 | 210 | 12.9 | 17.7 | 0.00 | 0.00 | 0.00 | 56 | 1016.0 |
| 20260508022546 | 15 | 190 | 11.3 | 17.7 | 0.00 | 0.00 | 0.00 | 55 | 1016.1 |
| 20260508021534 | 16 | 201 | 11.3 | 16.1 | 0.00 | 0.00 | 0.00 | 54 | 1016.0 |
| 20260508020620 | 16 | 180 | 12.9 | 22.5 | 0.00 | 0.00 | 0.00 | 53 | 1016.0 |
| 20260508015606 | 16 | 192 | 14.5 | 22.5 | 0.00 | 0.00 | 0.00 | 52 | 1016.0 |
| 20260508014554 | 16 | 217 | 14.5 | 22.5 | 0.00 | 0.00 | 0.00 | 52 | 1016.1 |
| 20260508013538 | 16 | 200 | 11.3 | 16.1 | 0.00 | 0.00 | 0.00 | 51 | 1016.0 |
| 20260508012524 | 16 | 167 | 12.9 | 17.7 | 0.00 | 0.00 | 0.00 | 50 | 1016.1 |
| 20260508011613 | 16 | 180 | 12.9 | 17.7 | 0.00 | 0.00 | 0.00 | 50 | 1016.0 |
| 20260508010557 | 16 | 186 | 14.5 | 22.5 | 0.00 | 0.00 | 0.00 | 48 | 1016.2 |
| 20260508005543 | 17 | 187 | 14.5 | 19.3 | 0.00 | 0.00 | 0.00 | 47 | 1016.2 |
| 20260508004531 | 17 | 208 | 16.1 | 24.1 | 0.00 | 0.00 | 0.00 | 46 | 1016.2 |
| 20260508003617 | 17 | 196 | 12.9 | 20.9 | 0.00 | 0.00 | 0.00 | 45 | 1016.3 |
| 20260508002602 | 17 | 193 | 12.9 | 19.3 | 0.00 | 0.00 | 0.00 | 44 | 1016.4 |
| 20260508001552 | 17 | 184 | 11.3 | 17.7 | 0.00 | 0.00 | 0.00 | 43 | 1016.3 |
| 20260508000537 | 17 | 191 | 12.9 | 20.9 | 0.00 | 0.00 | 0.00 | 43 | 1016.3 |
| 20260507235522 | 17 | 186 | 11.3 | 22.5 | 0.00 | 0.00 | 0.00 | 40 | 1016.3 |
| 20260507234611 | 17 | 210 | 12.9 | 16.1 | 0.00 | 0.00 | 0.00 | 40 | 1016.3 |
| 20260507233557 | 17 | 206 | 12.9 | 17.7 | 0.00 | 0.00 | 0.00 | 40 | 1016.3 |
| 20260507232543 | 17 | 191 | 11.3 | 17.7 | 0.00 | 0.00 | 0.00 | 40 | 1016.3 |
| 20260507231601 | 17 | 203 | 11.3 | 17.7 | 0.00 | 0.00 | 0.00 | 40 | 1016.4 |
| 20260507230546 | 18 | 198 | 9.7 | 16.1 | 0.00 | 0.00 | 0.00 | 40 | 1016.5 |
| 20260507225532 | 18 | 199 | 9.7 | 14.5 | 0.00 | 0.00 | 0.00 | 39 | 1016.5 |
| 20260507224521 | 18 | 178 | 11.3 | 17.7 | 0.00 | 0.00 | 0.00 | 39 | 1016.4 |
| 20260507223606 | 18 | 173 | 11.3 | 16.1 | 0.00 | 0.00 | 0.00 | 39 | 1016.4 |
| 20260507222552 | 18 | 185 | 11.3 | 17.7 | 0.00 | 0.00 | 0.00 | 38 | 1016.5 |
| 20260507221540 | 18 | 181 | 8.0 | 12.9 | 0.00 | 0.00 | 0.00 | 37 | 1016.3 |
| 20260507220526 | 19 | 180 | 11.3 | 14.5 | 0.00 | 0.00 | 0.00 | 36 | 1016.3 |
| 20260507215611 | 19 | 189 | 12.9 | 20.9 | 0.00 | 0.00 | 0.00 | 36 | 1016.2 |
| 20260507214559 | 19 | 210 | 14.5 | 22.5 | 0.00 | 0.00 | 0.00 | 35 | 1016.3 |
| 20260507213545 | 20 | 216 | 14.5 | 19.3 | 0.00 | 0.00 | 0.00 | 35 | 1016.3 |
| 20260507212531 | 20 | 209 | 12.9 | 17.7 | 0.00 | 0.00 | 0.00 | 35 | 1016.1 |
| 20260507211519 | 20 | 189 | 16.1 | 24.1 | 0.00 | 0.00 | 0.00 | 34 | 1016.0 |
| 20260507210604 | 20 | 199 | 12.9 | 17.7 | 0.00 | 0.00 | 0.00 | 34 | 1016.0 |
| 20260507205549 | 20 | 176 | 11.3 | 19.3 | 0.00 | 0.00 | 0.00 | 34 | 1015.9 |
| 20260507204537 | 20 | 185 | 12.9 | 20.9 | 0.00 | 0.00 | 0.00 | 34 | 1015.8 |
| 20260507203522 | 20 | 184 | 12.9 | 19.3 | 0.00 | 0.00 | 0.00 | 33 | 1015.8 |
| 20260507202608 | 21 | 200 | 14.5 | 19.3 | 0.00 | 0.00 | 0.00 | 32 | 1015.7 |
| 20260507201556 | 21 | 197 | 14.5 | 24.1 | 0.00 | 0.00 | 0.00 | 32 | 1015.4 |
| 20260507200541 | 21 | 202 | 14.5 | 17.7 | 0.00 | 0.00 | 0.00 | 32 | 1015.5 |
| 20260507195527 | 21 | 205 | 12.9 | 19.3 | 0.00 | 0.00 | 0.00 | 31 | 1015.4 |
| 20260507194616 | 21 | 199 | 14.5 | 20.9 | 0.00 | 0.00 | 0.00 | 31 | 1015.3 |
| 20260507193601 | 21 | 193 | 12.9 | 22.5 | 0.00 | 0.00 | 0.00 | 31 | 1015.4 |
| 20260507192547 | 22 | 197 | 12.9 | 17.7 | 0.00 | 0.00 | 0.00 | 31 | 1015.3 |
| 20260507191535 | 22 | 200 | 14.5 | 20.9 | 0.00 | 0.00 | 0.00 | 30 | 1015.1 |
| 20260507190620 | 22 | 197 | 14.5 | 19.3 | 0.00 | 0.00 | 0.00 | 30 | 1015.0 |
| 20260507185606 | 22 | 180 | 14.5 | 19.3 | 0.00 | 0.00 | 0.00 | 27 | 1015.0 |
| 20260507184553 | 22 | 190 | 12.9 | 20.9 | 0.00 | 0.00 | 0.00 | 27 | 1014.9 |
| 20260507183538 | 22 | 193 | 17.7 | 24.1 | 0.00 | 0.00 | 0.00 | 26 | 1014.8 |
| 20260507182525 | 22 | 180 | 12.9 | 17.7 | 0.00 | 0.00 | 0.00 | 26 | 1014.6 |
| 20260507181614 | 23 | 180 | 14.5 | 19.3 | 0.00 | 0.00 | 0.00 | 26 | 1014.6 |
| 20260507180558 | 23 | 215 | 14.5 | 22.5 | 0.00 | 0.00 | 0.00 | 25 | 1014.6 |
| 20260507175543 | 23 | 194 | 14.5 | 19.3 | 0.00 | 0.00 | 0.00 | 25 | 1014.5 |
| 20260507174533 | 23 | 179 | 17.7 | 25.7 | 0.00 | 0.00 | 0.00 | 24 | 1014.3 |
| 20260507173617 | 23 | 195 | 12.9 | 19.3 | 0.00 | 0.00 | 0.00 | 23 | 1014.1 |
| 20260507172603 | 24 | 200 | 11.3 | 14.5 | 0.00 | 0.00 | 0.00 | 23 | 1014.2 |
| 20260507171551 | 24 | 201 | 12.9 | 17.7 | 0.00 | 0.00 | 0.00 | 23 | 1014.1 |
| 20260507170536 | 25 | 180 | 9.7 | 12.9 | 0.00 | 0.00 | 0.00 | 22 | 1014.0 |
| 20260507165522 | 25 | 180 | 11.3 | 16.1 | 0.00 | 0.00 | 0.00 | 22 | 1013.9 |
| 20260507164611 | 25 | 226 | 12.9 | 20.9 | 0.00 | 0.00 | 0.00 | 22 | 1013.8 |
| 20260507163557 | 25 | 183 | 14.5 | 24.1 | 0.00 | 0.00 | 0.00 | 22 | 1013.8 |
| 20260507162544 | 26 | 188 | 16.1 | 20.9 | 0.00 | 0.00 | 0.00 | 21 | 1013.9 |
| 20260507161532 | 26 | 199 | 16.1 | 24.1 | 0.00 | 0.00 | 0.00 | 21 | 1013.8 |
| 20260507160619 | 26 | 180 | 16.1 | 22.5 | 0.00 | 0.00 | 0.00 | 21 | 1013.8 |
| 20260507155604 | 26 | 180 | 17.7 | 29.0 | 0.00 | 0.00 | 0.00 | 21 | 1013.9 |
| 20260507154553 | 26 | 188 | 22.5 | 32.2 | 0.00 | 0.00 | 0.00 | 21 | 1013.9 |
| 20260507153539 | 26 | 180 | 20.9 | 30.6 | 0.00 | 0.00 | 0.00 | 21 | 1013.8 |
| 20260507152525 | 26 | 183 | 20.9 | 35.4 | 0.00 | 0.00 | 0.00 | 21 | 1013.8 |
| 20260507151613 | 27 | 191 | 16.1 | 24.1 | 0.00 | 0.00 | 0.00 | 21 | 1013.8 |
| 20260507150558 | 26 | 180 | 17.7 | 22.5 | 0.00 | 0.00 | 0.00 | 21 | 1014.0 |
| 20260507145542 | 26 | 172 | 14.5 | 20.9 | 0.00 | 0.00 | 0.00 | 21 | 1014.0 |
| 20260507144531 | 26 | 198 | 20.9 | 27.4 | 0.00 | 0.00 | 0.00 | 21 | 1014.0 |
| 20260507143615 | 26 | 186 | 17.7 | 27.4 | 0.00 | 0.00 | 0.00 | 21 | 1014.0 |
| 20260507142601 | 27 | 215 | 17.7 | 24.1 | 0.00 | 0.00 | 0.00 | 21 | 1014.1 |
| 20260507141549 | 27 | 212 | 19.3 | 25.7 | 0.00 | 0.00 | 0.00 | 21 | 1014.1 |
| 20260507140534 | 27 | 193 | 16.1 | 25.7 | 0.00 | 0.00 | 0.00 | 21 | 1014.3 |
| 20260507135520 | 27 | 213 | 14.5 | 22.5 | 0.00 | 0.00 | 0.00 | 21 | 1014.3 |
| 20260507134609 | 26 | 171 | 19.3 | 25.7 | 0.00 | 0.00 | 0.00 | 21 | 1014.2 |
| 20260507133555 | 27 | 186 | 20.9 | 32.2 | 0.00 | 0.00 | 0.00 | 21 | 1014.4 |
| 20260507132541 | 27 | 200 | 16.1 | 27.4 | 0.00 | 0.00 | 0.00 | 21 | 1014.5 |
| 20260507131530 | 26 | 169 | 12.9 | 24.1 | 0.00 | 0.00 | 0.00 | 21 | 1014.5 |
| 20260507130616 | 26 | 205 | 20.9 | 27.4 | 0.00 | 0.00 | 0.00 | 21 | 1014.5 |
| 20260507125601 | 26 | 167 | 17.7 | 25.7 | 0.00 | 0.00 | 0.00 | 21 | 1014.7 |
| 20260507124549 | 26 | 193 | 19.3 | 25.7 | 0.00 | 0.00 | 0.00 | 21 | 1014.7 |
| 20260507123535 | 27 | 183 | 20.9 | 27.4 | 0.00 | 0.00 | 0.00 | 21 | 1014.7 |
| 20260507122522 | 27 | 191 | 19.3 | 27.4 | 0.00 | 0.00 | 0.00 | 21 | 1014.6 |
| 20260507121611 | 26 | 180 | 20.9 | 33.8 | 0.00 | 0.00 | 0.00 | 21 | 1014.8 |
| 20260507120556 | 26 | 180 | 22.5 | 35.4 | 0.00 | 0.00 | 0.00 | 21 | 1014.9 |
| 20260507115541 | 27 | 193 | 25.7 | 37.0 | 0.00 | 0.00 | 0.00 | 21 | 1014.9 |
| 20260507114529 | 27 | 187 | 25.7 | 37.0 | 0.00 | 0.00 | 0.00 | 21 | 1015.0 |
| 20260507113615 | 27 | 216 | 20.9 | 27.4 | 0.00 | 0.00 | 0.00 | 21 | 1015.0 |
| 20260507112601 | 26 | 174 | 22.5 | 33.8 | 0.00 | 0.00 | 0.00 | 21 | 1015.0 |